sensor_id;sensor_type;location;lat;lon;timestamp;pressure;altitude;pressure_sealevel;temperature
41940;BMP180;23057;48.554;14.454;2023-07-13T00:00:14;93737.00;;;25.40
41940;BMP180;23057;48.554;14.454;2023-07-13T00:02:46;93738.00;;;25.40
41940;BMP180;23057;48.554;14.454;2023-07-13T00:05:17;93732.00;;;25.30
41940;BMP180;23057;48.554;14.454;2023-07-13T00:07:50;93729.00;;;25.30
41940;BMP180;23057;48.554;14.454;2023-07-13T00:10:22;93726.00;;;25.20
41940;BMP180;23057;48.554;14.454;2023-07-13T00:12:53;93720.00;;;25.20
41940;BMP180;23057;48.554;14.454;2023-07-13T00:15:26;93722.00;;;25.20
41940;BMP180;23057;48.554;14.454;2023-07-13T00:17:57;93720.00;;;25.10
41940;BMP180;23057;48.554;14.454;2023-07-13T00:20:28;93718.00;;;25.10
41940;BMP180;23057;48.554;14.454;2023-07-13T00:22:59;93717.00;;;25.10
41940;BMP180;23057;48.554;14.454;2023-07-13T00:25:30;93723.00;;;25.10
41940;BMP180;23057;48.554;14.454;2023-07-13T00:28:02;93713.00;;;25.20
41940;BMP180;23057;48.554;14.454;2023-07-13T00:30:33;93712.00;;;25.20
41940;BMP180;23057;48.554;14.454;2023-07-13T00:33:03;93713.00;;;25.20
41940;BMP180;23057;48.554;14.454;2023-07-13T00:35:34;93702.00;;;25.10
41940;BMP180;23057;48.554;14.454;2023-07-13T00:38:05;93700.00;;;25.10
41940;BMP180;23057;48.554;14.454;2023-07-13T00:40:36;93697.00;;;25.10
41940;BMP180;23057;48.554;14.454;2023-07-13T00:43:17;93692.00;;;25.00
41940;BMP180;23057;48.554;14.454;2023-07-13T00:48:34;93676.00;;;25.00
41940;BMP180;23057;48.554;14.454;2023-07-13T00:51:10;93672.00;;;24.90
41940;BMP180;23057;48.554;14.454;2023-07-13T00:53:41;93656.00;;;24.90
41940;BMP180;23057;48.554;14.454;2023-07-13T00:56:13;93656.00;;;24.90
41940;BMP180;23057;48.554;14.454;2023-07-13T00:58:44;93654.00;;;24.90
41940;BMP180;23057;48.554;14.454;2023-07-13T02:43:17;93739.00;;;24.50
41940;BMP180;23057;48.554;14.454;2023-07-13T02:45:48;93743.00;;;24.60
41940;BMP180;23057;48.554;14.454;2023-07-13T02:48:19;93749.00;;;24.70
41940;BMP180;23057;48.554;14.454;2023-07-13T02:50:50;93752.00;;;24.70
41940;BMP180;23057;48.554;14.454;2023-07-13T02:53:21;93750.00;;;24.80
41940;BMP180;23057;48.554;14.454;2023-07-13T02:55:53;93748.00;;;24.90
41940;BMP180;23057;48.554;14.454;2023-07-13T02:58:24;93741.00;;;24.80
41940;BMP180;23057;48.554;14.454;2023-07-13T03:00:56;93749.00;;;24.90
41940;BMP180;23057;48.554;14.454;2023-07-13T03:03:28;93751.00;;;24.80
41940;BMP180;23057;48.554;14.454;2023-07-13T03:06:04;93741.00;;;24.90
41940;BMP180;23057;48.554;14.454;2023-07-13T03:08:37;93739.00;;;24.90
41940;BMP180;23057;48.554;14.454;2023-07-13T03:11:17;93747.00;;;24.90
41940;BMP180;23057;48.554;14.454;2023-07-13T03:13:49;93748.00;;;24.90
41940;BMP180;23057;48.554;14.454;2023-07-13T03:16:20;93751.00;;;24.90
41940;BMP180;23057;48.554;14.454;2023-07-13T03:18:51;93743.00;;;24.90
41940;BMP180;23057;48.554;14.454;2023-07-13T03:21:22;93741.00;;;25.00
41940;BMP180;23057;48.554;14.454;2023-07-13T03:23:53;93739.00;;;25.00
41940;BMP180;23057;48.554;14.454;2023-07-13T03:26:24;93749.00;;;25.00
41940;BMP180;23057;48.554;14.454;2023-07-13T03:28:54;93755.00;;;25.00
41940;BMP180;23057;48.554;14.454;2023-07-13T03:31:28;93752.00;;;25.00
41940;BMP180;23057;48.554;14.454;2023-07-13T03:34:00;93757.00;;;25.00
41940;BMP180;23057;48.554;14.454;2023-07-13T03:36:32;93750.00;;;25.00
41940;BMP180;23057;48.554;14.454;2023-07-13T03:39:04;93741.00;;;24.90
41940;BMP180;23057;48.554;14.454;2023-07-13T03:41:38;93746.00;;;25.00
41940;BMP180;23057;48.554;14.454;2023-07-13T03:44:09;93752.00;;;25.00
41940;BMP180;23057;48.554;14.454;2023-07-13T03:46:40;93748.00;;;25.00
41940;BMP180;23057;48.554;14.454;2023-07-13T03:49:11;93746.00;;;25.00
41940;BMP180;23057;48.554;14.454;2023-07-13T03:51:42;93743.00;;;25.00
41940;BMP180;23057;48.554;14.454;2023-07-13T03:54:13;93749.00;;;25.00
41940;BMP180;23057;48.554;14.454;2023-07-13T03:56:44;93747.00;;;25.00
41940;BMP180;23057;48.554;14.454;2023-07-13T03:59:15;93751.00;;;25.00
41940;BMP180;23057;48.554;14.454;2023-07-13T04:01:45;93752.00;;;25.00
41940;BMP180;23057;48.554;14.454;2023-07-13T04:04:16;93747.00;;;25.00
41940;BMP180;23057;48.554;14.454;2023-07-13T04:06:47;93748.00;;;25.00
41940;BMP180;23057;48.554;14.454;2023-07-13T04:09:18;93753.00;;;24.90
41940;BMP180;23057;48.554;14.454;2023-07-13T04:11:49;93754.00;;;24.80
41940;BMP180;23057;48.554;14.454;2023-07-13T04:14:20;93750.00;;;24.80
41940;BMP180;23057;48.554;14.454;2023-07-13T04:16:51;93740.00;;;24.80
41940;BMP180;23057;48.554;14.454;2023-07-13T04:19:24;93749.00;;;24.80
41940;BMP180;23057;48.554;14.454;2023-07-13T04:21:55;93746.00;;;24.80
41940;BMP180;23057;48.554;14.454;2023-07-13T04:24:26;93750.00;;;24.80
41940;BMP180;23057;48.554;14.454;2023-07-13T04:26:57;93750.00;;;24.80
41940;BMP180;23057;48.554;14.454;2023-07-13T04:29:29;93746.00;;;24.80
41940;BMP180;23057;48.554;14.454;2023-07-13T04:32:00;93746.00;;;24.80
41940;BMP180;23057;48.554;14.454;2023-07-13T04:34:31;93754.00;;;24.80
41940;BMP180;23057;48.554;14.454;2023-07-13T04:37:03;93759.00;;;24.90
41940;BMP180;23057;48.554;14.454;2023-07-13T04:39:35;93759.00;;;24.90
41940;BMP180;23057;48.554;14.454;2023-07-13T04:42:06;93766.00;;;24.90
41940;BMP180;23057;48.554;14.454;2023-07-13T04:44:37;93756.00;;;24.90
41940;BMP180;23057;48.554;14.454;2023-07-13T04:47:07;93754.00;;;24.90
41940;BMP180;23057;48.554;14.454;2023-07-13T04:49:38;93750.00;;;24.90
41940;BMP180;23057;48.554;14.454;2023-07-13T04:52:10;93758.00;;;24.90
41940;BMP180;23057;48.554;14.454;2023-07-13T04:54:42;93760.00;;;24.90
41940;BMP180;23057;48.554;14.454;2023-07-13T04:57:12;93750.00;;;24.90
41940;BMP180;23057;48.554;14.454;2023-07-13T04:59:43;93748.00;;;24.90
41940;BMP180;23057;48.554;14.454;2023-07-13T05:02:14;93752.00;;;24.90
41940;BMP180;23057;48.554;14.454;2023-07-13T05:04:49;93761.00;;;25.00
41940;BMP180;23057;48.554;14.454;2023-07-13T05:07:21;93759.00;;;24.90
41940;BMP180;23057;48.554;14.454;2023-07-13T05:09:53;93758.00;;;24.90
41940;BMP180;23057;48.554;14.454;2023-07-13T05:12:23;93757.00;;;24.90
41940;BMP180;23057;48.554;14.454;2023-07-13T05:14:54;93758.00;;;24.90
41940;BMP180;23057;48.554;14.454;2023-07-13T05:17:25;93762.00;;;24.90
41940;BMP180;23057;48.554;14.454;2023-07-13T05:19:56;93748.00;;;24.90
41940;BMP180;23057;48.554;14.454;2023-07-13T05:22:27;93753.00;;;25.00
41940;BMP180;23057;48.554;14.454;2023-07-13T05:24:57;93743.00;;;25.00
41940;BMP180;23057;48.554;14.454;2023-07-13T05:27:28;93757.00;;;25.00
41940;BMP180;23057;48.554;14.454;2023-07-13T05:29:59;93757.00;;;25.10
41940;BMP180;23057;48.554;14.454;2023-07-13T05:32:30;93746.00;;;25.10
41940;BMP180;23057;48.554;14.454;2023-07-13T05:35:01;93756.00;;;25.20
41940;BMP180;23057;48.554;14.454;2023-07-13T05:37:33;93751.00;;;25.20
41940;BMP180;23057;48.554;14.454;2023-07-13T05:40:04;93747.00;;;25.30
41940;BMP180;23057;48.554;14.454;2023-07-13T05:42:36;93750.00;;;25.30
41940;BMP180;23057;48.554;14.454;2023-07-13T05:45:07;93746.00;;;25.30
41940;BMP180;23057;48.554;14.454;2023-07-13T05:47:38;93759.00;;;25.40
41940;BMP180;23057;48.554;14.454;2023-07-13T05:50:09;93761.00;;;25.40
41940;BMP180;23057;48.554;14.454;2023-07-13T05:52:40;93766.00;;;25.50
41940;BMP180;23057;48.554;14.454;2023-07-13T05:55:11;93776.00;;;25.50
41940;BMP180;23057;48.554;14.454;2023-07-13T05:57:42;93771.00;;;25.50
41940;BMP180;23057;48.554;14.454;2023-07-13T06:00:13;93765.00;;;25.50
41940;BMP180;23057;48.554;14.454;2023-07-13T06:02:44;93774.00;;;25.60
41940;BMP180;23057;48.554;14.454;2023-07-13T06:05:15;93772.00;;;25.50
41940;BMP180;23057;48.554;14.454;2023-07-13T06:07:46;93779.00;;;25.60
41940;BMP180;23057;48.554;14.454;2023-07-13T06:10:17;93781.00;;;25.60
41940;BMP180;23057;48.554;14.454;2023-07-13T06:12:48;93766.00;;;25.60
41940;BMP180;23057;48.554;14.454;2023-07-13T06:15:19;93765.00;;;25.60
41940;BMP180;23057;48.554;14.454;2023-07-13T06:17:50;93763.00;;;25.70
41940;BMP180;23057;48.554;14.454;2023-07-13T06:20:21;93782.00;;;25.70
41940;BMP180;23057;48.554;14.454;2023-07-13T06:22:52;93770.00;;;25.70
41940;BMP180;23057;48.554;14.454;2023-07-13T06:25:22;93772.00;;;25.70
41940;BMP180;23057;48.554;14.454;2023-07-13T06:27:53;93779.00;;;25.70
41940;BMP180;23057;48.554;14.454;2023-07-13T06:30:24;93778.00;;;25.80
41940;BMP180;23057;48.554;14.454;2023-07-13T06:32:55;93774.00;;;25.80
41940;BMP180;23057;48.554;14.454;2023-07-13T06:35:26;93787.00;;;26.00
41940;BMP180;23057;48.554;14.454;2023-07-13T06:37:57;93783.00;;;26.00
41940;BMP180;23057;48.554;14.454;2023-07-13T06:40:28;93785.00;;;26.10
41940;BMP180;23057;48.554;14.454;2023-07-13T06:42:59;93784.00;;;26.20
41940;BMP180;23057;48.554;14.454;2023-07-13T06:45:30;93788.00;;;26.30
41940;BMP180;23057;48.554;14.454;2023-07-13T06:48:03;93793.00;;;26.40
41940;BMP180;23057;48.554;14.454;2023-07-13T06:50:34;93789.00;;;26.40
41940;BMP180;23057;48.554;14.454;2023-07-13T06:53:05;93787.00;;;26.40
41940;BMP180;23057;48.554;14.454;2023-07-13T06:55:36;93788.00;;;26.50
41940;BMP180;23057;48.554;14.454;2023-07-13T06:58:07;93798.00;;;26.50
41940;BMP180;23057;48.554;14.454;2023-07-13T07:00:38;93794.00;;;26.50
41940;BMP180;23057;48.554;14.454;2023-07-13T07:03:10;93803.00;;;26.40
41940;BMP180;23057;48.554;14.454;2023-07-13T07:05:41;93799.00;;;26.50
41940;BMP180;23057;48.554;14.454;2023-07-13T07:08:12;93808.00;;;26.60
41940;BMP180;23057;48.554;14.454;2023-07-13T07:10:43;93804.00;;;26.60
41940;BMP180;23057;48.554;14.454;2023-07-13T07:13:15;93808.00;;;26.70
41940;BMP180;23057;48.554;14.454;2023-07-13T07:15:46;93813.00;;;26.80
41940;BMP180;23057;48.554;14.454;2023-07-13T07:18:16;93815.00;;;26.80
41940;BMP180;23057;48.554;14.454;2023-07-13T07:20:49;93805.00;;;26.90
41940;BMP180;23057;48.554;14.454;2023-07-13T07:23:20;93809.00;;;26.90
41940;BMP180;23057;48.554;14.454;2023-07-13T07:25:50;93818.00;;;27.00
41940;BMP180;23057;48.554;14.454;2023-07-13T07:28:22;93814.00;;;27.00
41940;BMP180;23057;48.554;14.454;2023-07-13T07:30:56;93812.00;;;27.10
41940;BMP180;23057;48.554;14.454;2023-07-13T07:33:28;93809.00;;;27.10
41940;BMP180;23057;48.554;14.454;2023-07-13T07:35:59;93817.00;;;27.10
41940;BMP180;23057;48.554;14.454;2023-07-13T07:38:29;93815.00;;;27.10
41940;BMP180;23057;48.554;14.454;2023-07-13T07:41:04;93815.00;;;27.20
41940;BMP180;23057;48.554;14.454;2023-07-13T07:43:36;93819.00;;;27.30
41940;BMP180;23057;48.554;14.454;2023-07-13T07:46:07;93819.00;;;27.50
41940;BMP180;23057;48.554;14.454;2023-07-13T07:48:38;93822.00;;;27.60
41940;BMP180;23057;48.554;14.454;2023-07-13T07:51:08;93825.00;;;27.70
41940;BMP180;23057;48.554;14.454;2023-07-13T07:53:39;93822.00;;;27.70
41940;BMP180;23057;48.554;14.454;2023-07-13T07:56:10;93830.00;;;27.80
41940;BMP180;23057;48.554;14.454;2023-07-13T07:58:41;93828.00;;;27.80
41940;BMP180;23057;48.554;14.454;2023-07-13T08:01:12;93823.00;;;27.90
41940;BMP180;23057;48.554;14.454;2023-07-13T08:03:43;93828.00;;;28.00
41940;BMP180;23057;48.554;14.454;2023-07-13T08:06:14;93840.00;;;28.10
41940;BMP180;23057;48.554;14.454;2023-07-13T08:08:45;93840.00;;;28.10
41940;BMP180;23057;48.554;14.454;2023-07-13T08:11:17;93845.00;;;28.00
41940;BMP180;23057;48.554;14.454;2023-07-13T08:13:50;93844.00;;;27.90
41940;BMP180;23057;48.554;14.454;2023-07-13T08:16:21;93849.00;;;27.90
41940;BMP180;23057;48.554;14.454;2023-07-13T08:18:53;93855.00;;;27.80
41940;BMP180;23057;48.554;14.454;2023-07-13T08:21:24;93853.00;;;27.80
41940;BMP180;23057;48.554;14.454;2023-07-13T08:23:55;93853.00;;;27.90
41940;BMP180;23057;48.554;14.454;2023-07-13T08:26:26;93851.00;;;27.90
41940;BMP180;23057;48.554;14.454;2023-07-13T08:28:57;93863.00;;;28.00
41940;BMP180;23057;48.554;14.454;2023-07-13T08:31:28;93864.00;;;28.00
41940;BMP180;23057;48.554;14.454;2023-07-13T08:33:59;93869.00;;;28.00
41940;BMP180;23057;48.554;14.454;2023-07-13T08:36:30;93870.00;;;28.00
41940;BMP180;23057;48.554;14.454;2023-07-13T08:39:01;93872.00;;;28.00
41940;BMP180;23057;48.554;14.454;2023-07-13T08:41:33;93875.00;;;27.90
41940;BMP180;23057;48.554;14.454;2023-07-13T08:44:16;93885.00;;;27.90
41940;BMP180;23057;48.554;14.454;2023-07-13T08:46:58;93891.00;;;27.90
41940;BMP180;23057;48.554;14.454;2023-07-13T08:49:30;93901.00;;;27.90
41940;BMP180;23057;48.554;14.454;2023-07-13T08:52:37;93907.00;;;27.80
41940;BMP180;23057;48.554;14.454;2023-07-13T08:55:32;93906.00;;;27.80
41940;BMP180;23057;48.554;14.454;2023-07-13T08:58:13;93912.00;;;27.70
41940;BMP180;23057;48.554;14.454;2023-07-13T09:11:43;93911.00;;;28.00
41940;BMP180;23057;48.554;14.454;2023-07-13T09:14:42;93908.00;;;28.20
41940;BMP180;23057;48.554;14.454;2023-07-13T09:17:20;93910.00;;;28.30
41940;BMP180;23057;48.554;14.454;2023-07-13T09:20:22;93907.00;;;28.30
41940;BMP180;23057;48.554;14.454;2023-07-13T09:23:05;93909.00;;;28.40
41940;BMP180;23057;48.554;14.454;2023-07-13T09:25:45;93905.00;;;28.40
41940;BMP180;23057;48.554;14.454;2023-07-13T09:28:29;93906.00;;;28.50
41940;BMP180;23057;48.554;14.454;2023-07-13T09:31:14;93905.00;;;28.60
41940;BMP180;23057;48.554;14.454;2023-07-13T09:33:48;93908.00;;;28.70
41940;BMP180;23057;48.554;14.454;2023-07-13T09:36:33;93911.00;;;28.70
41940;BMP180;23057;48.554;14.454;2023-07-13T09:39:27;93912.00;;;28.70
41940;BMP180;23057;48.554;14.454;2023-07-13T09:42:14;93923.00;;;28.80
41940;BMP180;23057;48.554;14.454;2023-07-13T09:44:59;93927.00;;;28.80
41940;BMP180;23057;48.554;14.454;2023-07-13T09:47:40;93919.00;;;28.70
41940;BMP180;23057;48.554;14.454;2023-07-13T09:50:15;93920.00;;;28.80
41940;BMP180;23057;48.554;14.454;2023-07-13T09:52:49;93927.00;;;28.70
41940;BMP180;23057;48.554;14.454;2023-07-13T09:55:38;93924.00;;;28.80
41940;BMP180;23057;48.554;14.454;2023-07-13T10:01:04;93924.00;;;28.80
41940;BMP180;23057;48.554;14.454;2023-07-13T10:03:36;93931.00;;;28.90
41940;BMP180;23057;48.554;14.454;2023-07-13T10:06:18;93937.00;;;29.00
41940;BMP180;23057;48.554;14.454;2023-07-13T10:08:56;93936.00;;;29.20
41940;BMP180;23057;48.554;14.454;2023-07-13T10:11:30;93930.00;;;29.20
41940;BMP180;23057;48.554;14.454;2023-07-13T10:14:14;93941.00;;;29.30
41940;BMP180;23057;48.554;14.454;2023-07-13T10:16:48;93934.00;;;29.30
41940;BMP180;23057;48.554;14.454;2023-07-13T10:19:29;93934.00;;;29.40
41940;BMP180;23057;48.554;14.454;2023-07-13T10:22:23;93939.00;;;29.50
41940;BMP180;23057;48.554;14.454;2023-07-13T10:25:02;93936.00;;;29.80
41940;BMP180;23057;48.554;14.454;2023-07-13T10:27:35;93944.00;;;30.20
41940;BMP180;23057;48.554;14.454;2023-07-13T10:30:21;93941.00;;;30.30
41940;BMP180;23057;48.554;14.454;2023-07-13T10:33:02;93933.00;;;30.30
41940;BMP180;23057;48.554;14.454;2023-07-13T10:35:43;93933.00;;;30.30
41940;BMP180;23057;48.554;14.454;2023-07-13T10:38:22;93936.00;;;30.20
41940;BMP180;23057;48.554;14.454;2023-07-13T10:41:19;93926.00;;;30.10
41940;BMP180;23057;48.554;14.454;2023-07-13T10:43:55;93930.00;;;30.10
41940;BMP180;23057;48.554;14.454;2023-07-13T10:46:28;93938.00;;;30.10
41940;BMP180;23057;48.554;14.454;2023-07-13T10:49:07;93932.00;;;30.20
41940;BMP180;23057;48.554;14.454;2023-07-13T10:51:40;93934.00;;;30.20
41940;BMP180;23057;48.554;14.454;2023-07-13T10:54:20;93931.00;;;30.20
41940;BMP180;23057;48.554;14.454;2023-07-13T10:57:20;93940.00;;;30.20
41940;BMP180;23057;48.554;14.454;2023-07-13T11:00:16;93937.00;;;30.20
41940;BMP180;23057;48.554;14.454;2023-07-13T11:03:00;93940.00;;;30.20
41940;BMP180;23057;48.554;14.454;2023-07-13T11:05:33;93930.00;;;30.20
41940;BMP180;23057;48.554;14.454;2023-07-13T11:08:20;93935.00;;;30.20
41940;BMP180;23057;48.554;14.454;2023-07-13T11:11:02;93939.00;;;30.30
41940;BMP180;23057;48.554;14.454;2023-07-13T11:18:52;93949.00;;;30.30
41940;BMP180;23057;48.554;14.454;2023-07-13T11:27:45;93944.00;;;30.50
41940;BMP180;23057;48.554;14.454;2023-07-13T11:30:35;93945.00;;;30.50
41940;BMP180;23057;48.554;14.454;2023-07-13T11:34:02;93941.00;;;30.40
41940;BMP180;23057;48.554;14.454;2023-07-13T11:36:27;93936.00;;;30.40
41940;BMP180;23057;48.554;14.454;2023-07-13T11:42:01;93934.00;;;30.40
41940;BMP180;23057;48.554;14.454;2023-07-13T11:44:42;93925.00;;;30.30
41940;BMP180;23057;48.554;14.454;2023-07-13T11:47:21;93921.00;;;30.30
41940;BMP180;23057;48.554;14.454;2023-07-13T11:49:55;93920.00;;;30.20
41940;BMP180;23057;48.554;14.454;2023-07-13T11:52:35;93922.00;;;30.30
41940;BMP180;23057;48.554;14.454;2023-07-13T11:55:17;93916.00;;;30.50
41940;BMP180;23057;48.554;14.454;2023-07-13T11:57:59;93922.00;;;30.70
41940;BMP180;23057;48.554;14.454;2023-07-13T12:00:33;93923.00;;;30.90
41940;BMP180;23057;48.554;14.454;2023-07-13T12:03:05;93927.00;;;31.10
41940;BMP180;23057;48.554;14.454;2023-07-13T12:05:36;93930.00;;;31.20
41940;BMP180;23057;48.554;14.454;2023-07-13T12:08:11;93922.00;;;31.20
41940;BMP180;23057;48.554;14.454;2023-07-13T12:10:42;93925.00;;;31.20
41940;BMP180;23057;48.554;14.454;2023-07-13T12:13:12;93926.00;;;31.20
41940;BMP180;23057;48.554;14.454;2023-07-13T12:15:46;93919.00;;;31.10
41940;BMP180;23057;48.554;14.454;2023-07-13T12:18:29;93927.00;;;31.00
41940;BMP180;23057;48.554;14.454;2023-07-13T12:21:02;93915.00;;;30.80
41940;BMP180;23057;48.554;14.454;2023-07-13T12:23:35;93926.00;;;30.70
41940;BMP180;23057;48.554;14.454;2023-07-13T12:26:07;93914.00;;;30.70
41940;BMP180;23057;48.554;14.454;2023-07-13T12:28:51;93914.00;;;30.70
41940;BMP180;23057;48.554;14.454;2023-07-13T12:34:20;93916.00;;;30.30
41940;BMP180;23057;48.554;14.454;2023-07-13T12:37:01;93909.00;;;30.20
41940;BMP180;23057;48.554;14.454;2023-07-13T12:39:45;93921.00;;;30.10
41940;BMP180;23057;48.554;14.454;2023-07-13T12:45:26;93906.00;;;30.10
41940;BMP180;23057;48.554;14.454;2023-07-13T12:48:14;93904.00;;;30.20
41940;BMP180;23057;48.554;14.454;2023-07-13T12:50:48;93905.00;;;30.30
41940;BMP180;23057;48.554;14.454;2023-07-13T12:53:27;93902.00;;;30.40
41940;BMP180;23057;48.554;14.454;2023-07-13T12:56:03;93893.00;;;30.50
41940;BMP180;23057;48.554;14.454;2023-07-13T12:58:42;93891.00;;;30.60
41940;BMP180;23057;48.554;14.454;2023-07-13T13:01:14;93888.00;;;30.60
41940;BMP180;23057;48.554;14.454;2023-07-13T13:03:53;93877.00;;;30.60
41940;BMP180;23057;48.554;14.454;2023-07-13T13:06:29;93884.00;;;30.60
41940;BMP180;23057;48.554;14.454;2023-07-13T13:09:00;93881.00;;;30.70
41940;BMP180;23057;48.554;14.454;2023-07-13T13:11:32;93878.00;;;30.70
41940;BMP180;23057;48.554;14.454;2023-07-13T13:14:02;93879.00;;;30.60
41940;BMP180;23057;48.554;14.454;2023-07-13T13:16:37;93880.00;;;30.50
41940;BMP180;23057;48.554;14.454;2023-07-13T13:19:23;93874.00;;;30.40
41940;BMP180;23057;48.554;14.454;2023-07-13T13:21:56;93871.00;;;30.40
41940;BMP180;23057;48.554;14.454;2023-07-13T13:24:28;93861.00;;;30.40
41940;BMP180;23057;48.554;14.454;2023-07-13T13:27:00;93861.00;;;30.40
41940;BMP180;23057;48.554;14.454;2023-07-13T13:29:39;93857.00;;;30.40
41940;BMP180;23057;48.554;14.454;2023-07-13T13:32:14;93849.00;;;30.40
41940;BMP180;23057;48.554;14.454;2023-07-13T13:34:45;93853.00;;;30.40
41940;BMP180;23057;48.554;14.454;2023-07-13T13:37:25;93851.00;;;30.40
41940;BMP180;23057;48.554;14.454;2023-07-13T13:39:56;93859.00;;;30.40
41940;BMP180;23057;48.554;14.454;2023-07-13T13:42:27;93863.00;;;30.40
41940;BMP180;23057;48.554;14.454;2023-07-13T13:44:59;93856.00;;;30.50
41940;BMP180;23057;48.554;14.454;2023-07-13T13:47:32;93855.00;;;30.60
41940;BMP180;23057;48.554;14.454;2023-07-13T13:50:21;93859.00;;;30.60
41940;BMP180;23057;48.554;14.454;2023-07-13T13:52:55;93863.00;;;30.60
41940;BMP180;23057;48.554;14.454;2023-07-13T13:55:26;93869.00;;;30.60
41940;BMP180;23057;48.554;14.454;2023-07-13T13:57:57;93871.00;;;30.50
41940;BMP180;23057;48.554;14.454;2023-07-13T14:00:28;93875.00;;;30.40
41940;BMP180;23057;48.554;14.454;2023-07-13T14:03:00;93860.00;;;30.40
41940;BMP180;23057;48.554;14.454;2023-07-13T14:05:32;93862.00;;;30.30
41940;BMP180;23057;48.554;14.454;2023-07-13T14:08:19;93873.00;;;30.30
41940;BMP180;23057;48.554;14.454;2023-07-13T14:10:58;93875.00;;;30.40
41940;BMP180;23057;48.554;14.454;2023-07-13T14:13:45;93870.00;;;30.30
41940;BMP180;23057;48.554;14.454;2023-07-13T14:16:35;93875.00;;;30.20
41940;BMP180;23057;48.554;14.454;2023-07-13T14:19:23;93880.00;;;30.20
41940;BMP180;23057;48.554;14.454;2023-07-13T14:22:06;93876.00;;;30.20
41940;BMP180;23057;48.554;14.454;2023-07-13T14:24:49;93873.00;;;30.20
41940;BMP180;23057;48.554;14.454;2023-07-13T14:27:27;93874.00;;;30.20
41940;BMP180;23057;48.554;14.454;2023-07-13T14:29:58;93882.00;;;30.30
41940;BMP180;23057;48.554;14.454;2023-07-13T14:32:30;93882.00;;;30.30
41940;BMP180;23057;48.554;14.454;2023-07-13T14:35:01;93881.00;;;30.30
41940;BMP180;23057;48.554;14.454;2023-07-13T14:37:31;93884.00;;;30.30
41940;BMP180;23057;48.554;14.454;2023-07-13T14:40:15;93890.00;;;30.30
41940;BMP180;23057;48.554;14.454;2023-07-13T14:42:49;93885.00;;;30.30
41940;BMP180;23057;48.554;14.454;2023-07-13T14:45:20;93884.00;;;30.30
41940;BMP180;23057;48.554;14.454;2023-07-13T14:47:52;93888.00;;;30.30
41940;BMP180;23057;48.554;14.454;2023-07-13T14:50:32;93883.00;;;30.40
41940;BMP180;23057;48.554;14.454;2023-07-13T14:53:09;93878.00;;;30.50
41940;BMP180;23057;48.554;14.454;2023-07-13T14:55:42;93883.00;;;30.60
41940;BMP180;23057;48.554;14.454;2023-07-13T14:58:13;93877.00;;;30.70
41940;BMP180;23057;48.554;14.454;2023-07-13T15:00:44;93879.00;;;30.70
41940;BMP180;23057;48.554;14.454;2023-07-13T15:03:23;93874.00;;;30.80
41940;BMP180;23057;48.554;14.454;2023-07-13T15:05:55;93874.00;;;30.80
41940;BMP180;23057;48.554;14.454;2023-07-13T15:08:26;93866.00;;;30.90
41940;BMP180;23057;48.554;14.454;2023-07-13T15:10:57;93859.00;;;31.00
41940;BMP180;23057;48.554;14.454;2023-07-13T15:13:30;93859.00;;;30.90
41940;BMP180;23057;48.554;14.454;2023-07-13T15:16:01;93858.00;;;30.90
41940;BMP180;23057;48.554;14.454;2023-07-13T15:18:32;93863.00;;;30.90
41940;BMP180;23057;48.554;14.454;2023-07-13T15:21:08;93858.00;;;30.90
41940;BMP180;23057;48.554;14.454;2023-07-13T15:23:44;93858.00;;;30.90
41940;BMP180;23057;48.554;14.454;2023-07-13T15:26:17;93860.00;;;30.90
41940;BMP180;23057;48.554;14.454;2023-07-13T15:28:48;93864.00;;;30.90
41940;BMP180;23057;48.554;14.454;2023-07-13T15:31:25;93861.00;;;30.90
41940;BMP180;23057;48.554;14.454;2023-07-13T15:34:10;93871.00;;;30.90
41940;BMP180;23057;48.554;14.454;2023-07-13T15:36:44;93875.00;;;30.80
41940;BMP180;23057;48.554;14.454;2023-07-13T15:39:16;93872.00;;;30.80
41940;BMP180;23057;48.554;14.454;2023-07-13T15:41:47;93871.00;;;30.80
41940;BMP180;23057;48.554;14.454;2023-07-13T15:44:29;93873.00;;;30.70
41940;BMP180;23057;48.554;14.454;2023-07-13T15:47:02;93873.00;;;30.80
41940;BMP180;23057;48.554;14.454;2023-07-13T15:49:33;93881.00;;;30.80
41940;BMP180;23057;48.554;14.454;2023-07-13T15:52:05;93885.00;;;30.80
41940;BMP180;23057;48.554;14.454;2023-07-13T15:54:42;93874.00;;;30.80
41940;BMP180;23057;48.554;14.454;2023-07-13T15:57:13;93871.00;;;30.70
41940;BMP180;23057;48.554;14.454;2023-07-13T15:59:45;93873.00;;;30.70
41940;BMP180;23057;48.554;14.454;2023-07-13T16:02:20;93876.00;;;30.70
41940;BMP180;23057;48.554;14.454;2023-07-13T16:04:51;93889.00;;;30.70
41940;BMP180;23057;48.554;14.454;2023-07-13T16:07:22;93899.00;;;30.60
41940;BMP180;23057;48.554;14.454;2023-07-13T16:09:53;93889.00;;;30.60
41940;BMP180;23057;48.554;14.454;2023-07-13T16:12:23;93893.00;;;30.60
41940;BMP180;23057;48.554;14.454;2023-07-13T16:14:54;93893.00;;;30.60
41940;BMP180;23057;48.554;14.454;2023-07-13T16:17:25;93902.00;;;30.60
41940;BMP180;23057;48.554;14.454;2023-07-13T16:19:56;93908.00;;;30.70
41940;BMP180;23057;48.554;14.454;2023-07-13T16:22:27;93905.00;;;30.70
41940;BMP180;23057;48.554;14.454;2023-07-13T16:24:58;93919.00;;;30.70
41940;BMP180;23057;48.554;14.454;2023-07-13T16:27:30;93920.00;;;30.70
41940;BMP180;23057;48.554;14.454;2023-07-13T16:30:17;93915.00;;;30.60
41940;BMP180;23057;48.554;14.454;2023-07-13T16:32:55;93909.00;;;30.50
41940;BMP180;23057;48.554;14.454;2023-07-13T16:35:27;93914.00;;;30.50
41940;BMP180;23057;48.554;14.454;2023-07-13T16:38:29;93916.00;;;30.40
41940;BMP180;23057;48.554;14.454;2023-07-13T16:41:01;93926.00;;;30.30
41940;BMP180;23057;48.554;14.454;2023-07-13T16:43:32;93925.00;;;30.30
41940;BMP180;23057;48.554;14.454;2023-07-13T16:46:03;93924.00;;;30.20
41940;BMP180;23057;48.554;14.454;2023-07-13T16:48:34;93929.00;;;30.20
41940;BMP180;23057;48.554;14.454;2023-07-13T16:51:04;93927.00;;;30.10
41940;BMP180;23057;48.554;14.454;2023-07-13T16:53:37;93936.00;;;30.00
41940;BMP180;23057;48.554;14.454;2023-07-13T16:56:15;93941.00;;;30.00